sensor_id;sensor_type;location;lat;lon;timestamp;P1;durP1;ratioP1;P2;durP2;ratioP2
12222;SDS011;6174;49.058;8.524;2022-10-22T05:02:02;2.13;;;1.10;;
12222;SDS011;6174;49.058;8.524;2022-10-22T05:04:29;1.10;;;1.00;;
12222;SDS011;6174;49.058;8.524;2022-10-22T05:06:56;2.30;;;1.17;;
12222;SDS011;6174;49.058;8.524;2022-10-22T05:09:22;1.20;;;1.00;;
12222;SDS011;6174;49.058;8.524;2022-10-22T05:11:50;3.33;;;1.10;;
12222;SDS011;6174;49.058;8.524;2022-10-22T05:14:18;1.90;;;1.10;;
12222;SDS011;6174;49.058;8.524;2022-10-22T05:16:47;1.93;;;1.13;;
12222;SDS011;6174;49.058;8.524;2022-10-22T05:19:17;1.67;;;1.10;;
12222;SDS011;6174;49.058;8.524;2022-10-22T05:21:45;2.90;;;1.07;;
12222;SDS011;6174;49.058;8.524;2022-10-22T05:24:12;3.50;;;1.27;;
12222;SDS011;6174;49.058;8.524;2022-10-22T05:26:39;3.90;;;1.20;;
12222;SDS011;6174;49.058;8.524;2022-10-22T05:29:05;4.17;;;1.70;;
12222;SDS011;6174;49.058;8.524;2022-10-22T05:31:33;3.67;;;1.60;;
12222;SDS011;6174;49.058;8.524;2022-10-22T05:33:59;2.17;;;1.80;;
12222;SDS011;6174;49.058;8.524;2022-10-22T05:36:28;2.60;;;2.00;;
12222;SDS011;6174;49.058;8.524;2022-10-22T05:38:55;2.00;;;1.50;;
12222;SDS011;6174;49.058;8.524;2022-10-22T05:41:23;3.10;;;2.03;;
12222;SDS011;6174;49.058;8.524;2022-10-22T05:43:53;2.43;;;1.60;;
12222;SDS011;6174;49.058;8.524;2022-10-22T05:46:21;6.17;;;3.93;;
12222;SDS011;6174;49.058;8.524;2022-10-22T05:48:49;1.63;;;1.40;;
12222;SDS011;6174;49.058;8.524;2022-10-22T05:51:17;2.00;;;1.50;;
12222;SDS011;6174;49.058;8.524;2022-10-22T05:53:45;3.60;;;2.00;;
12222;SDS011;6174;49.058;8.524;2022-10-22T05:56:16;1.50;;;1.40;;
12222;SDS011;6174;49.058;8.524;2022-10-22T05:58:43;1.60;;;1.50;;
12222;SDS011;6174;49.058;8.524;2022-10-22T06:01:11;1.77;;;1.30;;
12222;SDS011;6174;49.058;8.524;2022-10-22T06:03:39;3.47;;;1.47;;
12222;SDS011;6174;49.058;8.524;2022-10-22T06:06:10;1.90;;;1.43;;
12222;SDS011;6174;49.058;8.524;2022-10-22T06:08:46;3.30;;;1.50;;
12222;SDS011;6174;49.058;8.524;2022-10-22T06:11:15;2.53;;;1.43;;
12222;SDS011;6174;49.058;8.524;2022-10-22T06:13:43;3.00;;;1.67;;
12222;SDS011;6174;49.058;8.524;2022-10-22T06:16:10;4.23;;;2.30;;
12222;SDS011;6174;49.058;8.524;2022-10-22T06:18:36;5.17;;;2.30;;
12222;SDS011;6174;49.058;8.524;2022-10-22T06:21:04;2.70;;;1.90;;
12222;SDS011;6174;49.058;8.524;2022-10-22T06:23:31;2.20;;;1.77;;
12222;SDS011;6174;49.058;8.524;2022-10-22T06:25:59;2.23;;;2.03;;
12222;SDS011;6174;49.058;8.524;2022-10-22T06:28:27;2.53;;;1.70;;
12222;SDS011;6174;49.058;8.524;2022-10-22T06:30:55;2.23;;;1.80;;
12222;SDS011;6174;49.058;8.524;2022-10-22T06:33:23;3.93;;;1.70;;
12222;SDS011;6174;49.058;8.524;2022-10-22T06:35:49;2.43;;;1.70;;
12222;SDS011;6174;49.058;8.524;2022-10-22T06:38:16;1.93;;;1.83;;
12222;SDS011;6174;49.058;8.524;2022-10-22T06:40:43;3.03;;;1.80;;
12222;SDS011;6174;49.058;8.524;2022-10-22T06:43:11;1.80;;;1.50;;
12222;SDS011;6174;49.058;8.524;2022-10-22T06:45:39;3.37;;;2.00;;
12222;SDS011;6174;49.058;8.524;2022-10-22T06:48:06;2.93;;;1.70;;
12222;SDS011;6174;49.058;8.524;2022-10-22T06:50:33;1.80;;;1.70;;
12222;SDS011;6174;49.058;8.524;2022-10-22T06:53:00;2.40;;;2.00;;
12222;SDS011;6174;49.058;8.524;2022-10-22T06:55:26;1.40;;;1.30;;
12222;SDS011;6174;49.058;8.524;2022-10-22T06:57:53;4.17;;;1.53;;
12222;SDS011;6174;49.058;8.524;2022-10-22T07:00:22;1.70;;;1.47;;
12222;SDS011;6174;49.058;8.524;2022-10-22T07:02:51;2.77;;;1.67;;
12222;SDS011;6174;49.058;8.524;2022-10-22T07:05:19;1.50;;;1.40;;
12222;SDS011;6174;49.058;8.524;2022-10-22T07:07:46;2.67;;;1.60;;
12222;SDS011;6174;49.058;8.524;2022-10-22T07:10:13;1.87;;;1.77;;
12222;SDS011;6174;49.058;8.524;2022-10-22T07:12:40;2.13;;;1.80;;
12222;SDS011;6174;49.058;8.524;2022-10-22T07:15:07;3.63;;;1.90;;
12222;SDS011;6174;49.058;8.524;2022-10-22T07:17:35;2.73;;;2.37;;
12222;SDS011;6174;49.058;8.524;2022-10-22T07:20:02;2.67;;;1.63;;
12222;SDS011;6174;49.058;8.524;2022-10-22T07:22:30;4.40;;;1.70;;
12222;SDS011;6174;49.058;8.524;2022-10-22T07:24:56;4.47;;;1.70;;
12222;SDS011;6174;49.058;8.524;2022-10-22T07:27:23;2.37;;;1.60;;
12222;SDS011;6174;49.058;8.524;2022-10-22T07:29:50;6.50;;;2.30;;
12222;SDS011;6174;49.058;8.524;2022-10-22T07:32:16;3.43;;;1.50;;
12222;SDS011;6174;49.058;8.524;2022-10-22T07:34:45;2.50;;;1.80;;
12222;SDS011;6174;49.058;8.524;2022-10-22T07:37:11;2.70;;;1.30;;
12222;SDS011;6174;49.058;8.524;2022-10-22T07:39:38;2.50;;;1.10;;
12222;SDS011;6174;49.058;8.524;2022-10-22T07:42:05;2.50;;;1.30;;
12222;SDS011;6174;49.058;8.524;2022-10-22T07:44:31;3.10;;;1.27;;
12222;SDS011;6174;49.058;8.524;2022-10-22T07:46:58;3.93;;;1.60;;
12222;SDS011;6174;49.058;8.524;2022-10-22T07:49:25;4.70;;;1.73;;
12222;SDS011;6174;49.058;8.524;2022-10-22T07:51:53;1.70;;;1.40;;
12222;SDS011;6174;49.058;8.524;2022-10-22T07:54:21;1.30;;;1.20;;
12222;SDS011;6174;49.058;8.524;2022-10-22T07:56:47;1.37;;;1.27;;
12222;SDS011;6174;49.058;8.524;2022-10-22T07:59:14;1.83;;;1.30;;
12222;SDS011;6174;49.058;8.524;2022-10-22T08:01:41;1.70;;;1.30;;
12222;SDS011;6174;49.058;8.524;2022-10-22T08:04:08;1.80;;;1.10;;
12222;SDS011;6174;49.058;8.524;2022-10-22T08:06:35;0.90;;;0.90;;
12222;SDS011;6174;49.058;8.524;2022-10-22T08:09:04;1.60;;;1.10;;
12222;SDS011;6174;49.058;8.524;2022-10-22T08:11:30;2.13;;;1.40;;
12222;SDS011;6174;49.058;8.524;2022-10-22T08:13:58;3.57;;;1.30;;
12222;SDS011;6174;49.058;8.524;2022-10-22T08:16:24;1.23;;;1.00;;
12222;SDS011;6174;49.058;8.524;2022-10-22T08:18:51;1.70;;;1.03;;
12222;SDS011;6174;49.058;8.524;2022-10-22T08:21:18;1.43;;;1.20;;
12222;SDS011;6174;49.058;8.524;2022-10-22T08:23:45;2.63;;;2.30;;
12222;SDS011;6174;49.058;8.524;2022-10-22T08:26:13;1.57;;;1.47;;
12222;SDS011;6174;49.058;8.524;2022-10-22T08:28:39;1.97;;;1.43;;
12222;SDS011;6174;49.058;8.524;2022-10-22T08:31:06;2.03;;;0.90;;
12222;SDS011;6174;49.058;8.524;2022-10-22T08:33:34;1.17;;;1.07;;
12222;SDS011;6174;49.058;8.524;2022-10-22T08:36:00;2.17;;;1.30;;
12222;SDS011;6174;49.058;8.524;2022-10-22T08:38:27;1.13;;;1.03;;
12222;SDS011;6174;49.058;8.524;2022-10-22T08:40:56;1.60;;;1.10;;
12222;SDS011;6174;49.058;8.524;2022-10-22T08:43:49;1.10;;;0.90;;
12222;SDS011;6174;49.058;8.524;2022-10-22T08:46:39;2.07;;;1.10;;
12222;SDS011;6174;49.058;8.524;2022-10-22T08:49:18;0.97;;;0.70;;
12222;SDS011;6174;49.058;8.524;2022-10-22T08:51:47;2.13;;;0.87;;
12222;SDS011;6174;49.058;8.524;2022-10-22T08:54:21;0.93;;;0.87;;
12222;SDS011;6174;49.058;8.524;2022-10-22T08:56:57;1.20;;;1.00;;
12222;SDS011;6174;49.058;8.524;2022-10-22T08:59:34;2.00;;;1.10;;
12222;SDS011;6174;49.058;8.524;2022-10-22T09:02:11;1.37;;;1.10;;
12222;SDS011;6174;49.058;8.524;2022-10-22T09:04:49;1.30;;;0.77;;
12222;SDS011;6174;49.058;8.524;2022-10-22T09:07:22;1.00;;;0.90;;
12222;SDS011;6174;49.058;8.524;2022-10-22T09:09:50;1.13;;;0.83;;
12222;SDS011;6174;49.058;8.524;2022-10-22T09:12:19;1.60;;;1.20;;
12222;SDS011;6174;49.058;8.524;2022-10-22T09:14:51;1.70;;;1.00;;
12222;SDS011;6174;49.058;8.524;2022-10-22T09:17:20;1.07;;;0.93;;
12222;SDS011;6174;49.058;8.524;2022-10-22T09:19:59;0.83;;;0.83;;
12222;SDS011;6174;49.058;8.524;2022-10-22T09:22:33;2.90;;;1.20;;
12222;SDS011;6174;49.058;8.524;2022-10-22T09:25:10;1.33;;;0.87;;
12222;SDS011;6174;49.058;8.524;2022-10-22T09:27:43;2.20;;;1.20;;
12222;SDS011;6174;49.058;8.524;2022-10-22T09:30:14;1.10;;;0.90;;
12222;SDS011;6174;49.058;8.524;2022-10-22T09:32:43;0.63;;;0.63;;
12222;SDS011;6174;49.058;8.524;2022-10-22T09:35:10;2.33;;;1.40;;
12222;SDS011;6174;49.058;8.524;2022-10-22T09:37:46;1.03;;;0.90;;
12222;SDS011;6174;49.058;8.524;2022-10-22T09:40:14;0.80;;;0.80;;
12222;SDS011;6174;49.058;8.524;2022-10-22T09:42:42;1.40;;;1.10;;
12222;SDS011;6174;49.058;8.524;2022-10-22T09:45:22;1.80;;;1.03;;
12222;SDS011;6174;49.058;8.524;2022-10-22T09:47:51;1.00;;;0.90;;
12222;SDS011;6174;49.058;8.524;2022-10-22T09:50:37;1.73;;;0.77;;
12222;SDS011;6174;49.058;8.524;2022-10-22T09:53:11;2.00;;;1.00;;
12222;SDS011;6174;49.058;8.524;2022-10-22T09:55:40;0.90;;;0.90;;
12222;SDS011;6174;49.058;8.524;2022-10-22T09:58:08;2.33;;;1.00;;
12222;SDS011;6174;49.058;8.524;2022-10-22T10:00:38;0.80;;;0.80;;
12222;SDS011;6174;49.058;8.524;2022-10-22T10:03:11;2.57;;;1.40;;
12222;SDS011;6174;49.058;8.524;2022-10-22T10:05:45;3.73;;;1.10;;
12222;SDS011;6174;49.058;8.524;2022-10-22T10:08:13;1.00;;;0.90;;
12222;SDS011;6174;49.058;8.524;2022-10-22T10:10:42;1.97;;;0.80;;
12222;SDS011;6174;49.058;8.524;2022-10-22T10:16:12;3.27;;;1.10;;
12222;SDS011;6174;49.058;8.524;2022-10-22T10:21:54;1.67;;;1.00;;
12222;SDS011;6174;49.058;8.524;2022-10-22T10:24:31;1.33;;;0.80;;
12222;SDS011;6174;49.058;8.524;2022-10-22T10:27:12;1.10;;;0.90;;
12222;SDS011;6174;49.058;8.524;2022-10-22T10:29:46;0.80;;;0.80;;
12222;SDS011;6174;49.058;8.524;2022-10-22T10:32:29;0.97;;;0.90;;
12222;SDS011;6174;49.058;8.524;2022-10-22T10:35:14;0.80;;;0.80;;
12222;SDS011;6174;49.058;8.524;2022-10-22T10:37:48;3.83;;;0.90;;
12222;SDS011;6174;49.058;8.524;2022-10-22T10:40:30;1.20;;;0.87;;
12222;SDS011;6174;49.058;8.524;2022-10-22T10:43:05;2.57;;;1.30;;
12222;SDS011;6174;49.058;8.524;2022-10-22T10:45:37;1.80;;;1.20;;
12222;SDS011;6174;49.058;8.524;2022-10-22T10:51:06;1.60;;;0.97;;
12222;SDS011;6174;49.058;8.524;2022-10-22T10:53:46;1.17;;;0.90;;
12222;SDS011;6174;49.058;8.524;2022-10-22T10:56:30;3.63;;;1.20;;
12222;SDS011;6174;49.058;8.524;2022-10-22T10:59:06;1.10;;;1.00;;
12222;SDS011;6174;49.058;8.524;2022-10-22T11:01:41;1.53;;;1.03;;
12222;SDS011;6174;49.058;8.524;2022-10-22T11:04:31;1.10;;;1.00;;
12222;SDS011;6174;49.058;8.524;2022-10-22T11:07:27;1.93;;;0.90;;
12222;SDS011;6174;49.058;8.524;2022-10-22T11:10:01;1.70;;;1.00;;
12222;SDS011;6174;49.058;8.524;2022-10-22T11:12:35;1.53;;;1.43;;
12222;SDS011;6174;49.058;8.524;2022-10-22T11:15:08;2.10;;;1.07;;
12222;SDS011;6174;49.058;8.524;2022-10-22T11:17:47;3.97;;;1.27;;
12222;SDS011;6174;49.058;8.524;2022-10-22T11:20:17;2.67;;;1.03;;
12222;SDS011;6174;49.058;8.524;2022-10-22T11:22:49;2.53;;;1.07;;
12222;SDS011;6174;49.058;8.524;2022-10-22T11:25:20;1.00;;;0.90;;
12222;SDS011;6174;49.058;8.524;2022-10-22T11:27:51;1.47;;;1.10;;
12222;SDS011;6174;49.058;8.524;2022-10-22T11:30:23;1.20;;;1.00;;
12222;SDS011;6174;49.058;8.524;2022-10-22T11:32:51;1.70;;;1.00;;
12222;SDS011;6174;49.058;8.524;2022-10-22T11:35:23;2.83;;;1.20;;
12222;SDS011;6174;49.058;8.524;2022-10-22T11:37:51;1.67;;;1.00;;
12222;SDS011;6174;49.058;8.524;2022-10-22T11:40:21;2.73;;;1.13;;
12222;SDS011;6174;49.058;8.524;2022-10-22T11:42:58;1.30;;;1.03;;
12222;SDS011;6174;49.058;8.524;2022-10-22T11:45:30;2.63;;;1.00;;
12222;SDS011;6174;49.058;8.524;2022-10-22T11:48:05;1.93;;;1.00;;
12222;SDS011;6174;49.058;8.524;2022-10-22T11:50:45;3.17;;;1.00;;
12222;SDS011;6174;49.058;8.524;2022-10-22T11:53:18;2.60;;;0.97;;
12222;SDS011;6174;49.058;8.524;2022-10-22T11:55:55;1.90;;;1.07;;
12222;SDS011;6174;49.058;8.524;2022-10-22T11:58:28;2.27;;;1.20;;
12222;SDS011;6174;49.058;8.524;2022-10-22T12:04:16;2.33;;;1.40;;
12222;SDS011;6174;49.058;8.524;2022-10-22T12:06:53;1.30;;;0.97;;
12222;SDS011;6174;49.058;8.524;2022-10-22T12:09:25;3.70;;;1.27;;
12222;SDS011;6174;49.058;8.524;2022-10-22T12:11:54;1.20;;;0.83;;
12222;SDS011;6174;49.058;8.524;2022-10-22T12:14:37;2.40;;;1.33;;
12222;SDS011;6174;49.058;8.524;2022-10-22T12:17:17;2.63;;;1.30;;
12222;SDS011;6174;49.058;8.524;2022-10-22T12:19:47;4.10;;;1.27;;
12222;SDS011;6174;49.058;8.524;2022-10-22T12:22:22;2.83;;;1.20;;
12222;SDS011;6174;49.058;8.524;2022-10-22T12:24:52;2.00;;;1.00;;
12222;SDS011;6174;49.058;8.524;2022-10-22T12:27:22;5.67;;;1.47;;
12222;SDS011;6174;49.058;8.524;2022-10-22T12:29:53;2.13;;;1.10;;
12222;SDS011;6174;49.058;8.524;2022-10-22T12:32:20;2.27;;;1.10;;
12222;SDS011;6174;49.058;8.524;2022-10-22T12:34:51;2.53;;;1.10;;
12222;SDS011;6174;49.058;8.524;2022-10-22T12:37:18;1.97;;;1.17;;
12222;SDS011;6174;49.058;8.524;2022-10-22T12:39:46;3.37;;;1.30;;
12222;SDS011;6174;49.058;8.524;2022-10-22T12:42:14;1.90;;;1.10;;
12222;SDS011;6174;49.058;8.524;2022-10-22T12:44:42;2.47;;;1.20;;
12222;SDS011;6174;49.058;8.524;2022-10-22T12:47:11;1.73;;;1.30;;
12222;SDS011;6174;49.058;8.524;2022-10-22T12:49:42;2.57;;;1.23;;
12222;SDS011;6174;49.058;8.524;2022-10-22T12:52:13;3.13;;;1.30;;
12222;SDS011;6174;49.058;8.524;2022-10-22T12:54:43;1.73;;;1.30;;
12222;SDS011;6174;49.058;8.524;2022-10-22T12:57:13;1.10;;;1.00;;
12222;SDS011;6174;49.058;8.524;2022-10-22T12:59:43;1.50;;;1.07;;
12222;SDS011;6174;49.058;8.524;2022-10-22T13:02:14;4.37;;;1.00;;
12222;SDS011;6174;49.058;8.524;2022-10-22T13:07:40;2.10;;;1.03;;
12222;SDS011;6174;49.058;8.524;2022-10-22T13:10:13;2.87;;;1.20;;
12222;SDS011;6174;49.058;8.524;2022-10-22T13:12:47;3.73;;;1.20;;
12222;SDS011;6174;49.058;8.524;2022-10-22T13:15:19;3.23;;;1.10;;
12222;SDS011;6174;49.058;8.524;2022-10-22T13:18:00;1.13;;;0.80;;
12222;SDS011;6174;49.058;8.524;2022-10-22T13:20:27;1.70;;;1.37;;
12222;SDS011;6174;49.058;8.524;2022-10-22T13:22:55;3.03;;;1.00;;
12222;SDS011;6174;49.058;8.524;2022-10-22T13:25:25;2.17;;;1.07;;
12222;SDS011;6174;49.058;8.524;2022-10-22T13:27:55;1.07;;;0.90;;
12222;SDS011;6174;49.058;8.524;2022-10-22T13:30:26;2.27;;;0.93;;
12222;SDS011;6174;49.058;8.524;2022-10-22T13:32:55;3.13;;;1.33;;
12222;SDS011;6174;49.058;8.524;2022-10-22T13:35:24;3.20;;;1.30;;
12222;SDS011;6174;49.058;8.524;2022-10-22T13:37:52;2.60;;;1.27;;
12222;SDS011;6174;49.058;8.524;2022-10-22T13:40:19;3.10;;;1.30;;
12222;SDS011;6174;49.058;8.524;2022-10-22T13:42:46;1.70;;;0.87;;
12222;SDS011;6174;49.058;8.524;2022-10-22T13:45:15;4.13;;;1.13;;
12222;SDS011;6174;49.058;8.524;2022-10-22T13:47:49;1.93;;;1.03;;
12222;SDS011;6174;49.058;8.524;2022-10-22T13:50:19;1.50;;;0.80;;
12222;SDS011;6174;49.058;8.524;2022-10-22T13:52:46;5.47;;;1.53;;
12222;SDS011;6174;49.058;8.524;2022-10-22T13:55:16;3.53;;;1.47;;
12222;SDS011;6174;49.058;8.524;2022-10-22T13:57:45;2.13;;;1.00;;
12222;SDS011;6174;49.058;8.524;2022-10-22T14:00:15;2.93;;;1.20;;
12222;SDS011;6174;49.058;8.524;2022-10-22T14:02:44;3.23;;;1.07;;
12222;SDS011;6174;49.058;8.524;2022-10-22T14:05:13;1.97;;;1.13;;
12222;SDS011;6174;49.058;8.524;2022-10-22T14:07:41;2.87;;;1.50;;
12222;SDS011;6174;49.058;8.524;2022-10-22T14:10:12;2.50;;;1.00;;
12222;SDS011;6174;49.058;8.524;2022-10-22T14:12:40;1.03;;;0.90;;
12222;SDS011;6174;49.058;8.524;2022-10-22T14:15:08;2.20;;;1.30;;
12222;SDS011;6174;49.058;8.524;2022-10-22T14:17:38;5.23;;;1.53;;
12222;SDS011;6174;49.058;8.524;2022-10-22T14:20:08;3.53;;;1.33;;
12222;SDS011;6174;49.058;8.524;2022-10-22T14:22:39;2.13;;;0.97;;
12222;SDS011;6174;49.058;8.524;2022-10-22T14:25:07;1.57;;;1.30;;
12222;SDS011;6174;49.058;8.524;2022-10-22T14:27:37;2.50;;;1.40;;
12222;SDS011;6174;49.058;8.524;2022-10-22T14:30:04;1.20;;;1.10;;
12222;SDS011;6174;49.058;8.524;2022-10-22T14:32:32;1.40;;;1.00;;
12222;SDS011;6174;49.058;8.524;2022-10-22T14:35:00;3.50;;;1.43;;
12222;SDS011;6174;49.058;8.524;2022-10-22T14:37:27;2.47;;;1.00;;
12222;SDS011;6174;49.058;8.524;2022-10-22T14:39:54;3.53;;;1.13;;
12222;SDS011;6174;49.058;8.524;2022-10-22T14:42:25;2.53;;;1.20;;
12222;SDS011;6174;49.058;8.524;2022-10-22T14:44:52;2.97;;;0.80;;
12222;SDS011;6174;49.058;8.524;2022-10-22T14:47:19;1.53;;;1.20;;
12222;SDS011;6174;49.058;8.524;2022-10-22T14:49:46;1.20;;;0.87;;
12222;SDS011;6174;49.058;8.524;2022-10-22T14:52:14;1.53;;;0.87;;
12222;SDS011;6174;49.058;8.524;2022-10-22T14:54:41;2.37;;;1.03;;
12222;SDS011;6174;49.058;8.524;2022-10-22T14:57:08;3.83;;;1.40;;
12222;SDS011;6174;49.058;8.524;2022-10-22T14:59:38;2.30;;;1.20;;
12222;SDS011;6174;49.058;8.524;2022-10-22T15:02:05;2.73;;;1.10;;
12222;SDS011;6174;49.058;8.524;2022-10-22T15:04:33;1.57;;;1.17;;
12222;SDS011;6174;49.058;8.524;2022-10-22T15:07:01;2.03;;;1.30;;
12222;SDS011;6174;49.058;8.524;2022-10-22T15:09:29;2.53;;;1.37;;
12222;SDS011;6174;49.058;8.524;2022-10-22T15:11:56;2.47;;;1.80;;
12222;SDS011;6174;49.058;8.524;2022-10-22T15:14:23;3.47;;;1.20;;
12222;SDS011;6174;49.058;8.524;2022-10-22T15:16:50;1.57;;;1.20;;
12222;SDS011;6174;49.058;8.524;2022-10-22T15:19:17;1.83;;;1.13;;
12222;SDS011;6174;49.058;8.524;2022-10-22T15:21:43;1.80;;;0.70;;
12222;SDS011;6174;49.058;8.524;2022-10-22T15:24:10;2.27;;;1.00;;
12222;SDS011;6174;49.058;8.524;2022-10-22T15:26:38;1.77;;;1.30;;
12222;SDS011;6174;49.058;8.524;2022-10-22T15:29:05;2.20;;;1.17;;
12222;SDS011;6174;49.058;8.524;2022-10-22T15:31:42;1.37;;;1.00;;
12222;SDS011;6174;49.058;8.524;2022-10-22T15:34:10;1.60;;;1.07;;
12222;SDS011;6174;49.058;8.524;2022-10-22T15:36:38;2.80;;;1.50;;
12222;SDS011;6174;49.058;8.524;2022-10-22T15:39:05;3.23;;;1.10;;
12222;SDS011;6174;49.058;8.524;2022-10-22T15:41:33;3.17;;;1.37;;
12222;SDS011;6174;49.058;8.524;2022-10-22T15:44:02;2.50;;;1.20;;
12222;SDS011;6174;49.058;8.524;2022-10-22T15:46:30;3.50;;;1.10;;
12222;SDS011;6174;49.058;8.524;2022-10-22T15:48:57;5.13;;;1.30;;
12222;SDS011;6174;49.058;8.524;2022-10-22T15:51:24;3.73;;;1.63;;
12222;SDS011;6174;49.058;8.524;2022-10-22T15:53:52;4.00;;;1.40;;
12222;SDS011;6174;49.058;8.524;2022-10-22T15:56:20;2.57;;;1.57;;
12222;SDS011;6174;49.058;8.524;2022-10-22T15:58:50;3.80;;;1.73;;
12222;SDS011;6174;49.058;8.524;2022-10-22T16:01:19;3.53;;;1.90;;
12222;SDS011;6174;49.058;8.524;2022-10-22T16:03:46;2.73;;;1.90;;
12222;SDS011;6174;49.058;8.524;2022-10-22T16:06:16;3.30;;;1.73;;
12222;SDS011;6174;49.058;8.524;2022-10-22T16:08:43;3.77;;;1.83;;
12222;SDS011;6174;49.058;8.524;2022-10-22T16:11:10;3.87;;;2.50;;
12222;SDS011;6174;49.058;8.524;2022-10-22T16:13:37;3.37;;;1.60;;
12222;SDS011;6174;49.058;8.524;2022-10-22T16:16:04;4.53;;;2.40;;
12222;SDS011;6174;49.058;8.524;2022-10-22T16:18:33;7.33;;;2.00;;
12222;SDS011;6174;49.058;8.524;2022-10-22T16:21:00;4.07;;;1.80;;
12222;SDS011;6174;49.058;8.524;2022-10-22T16:23:26;3.83;;;1.80;;
12222;SDS011;6174;49.058;8.524;2022-10-22T16:25:53;7.40;;;3.40;;
12222;SDS011;6174;49.058;8.524;2022-10-22T16:28:20;8.30;;;3.93;;
12222;SDS011;6174;49.058;8.524;2022-10-22T16:30:47;4.33;;;3.40;;
12222;SDS011;6174;49.058;8.524;2022-10-22T16:33:14;10.80;;;4.53;;
12222;SDS011;6174;49.058;8.524;2022-10-22T16:35:42;5.93;;;2.90;;
12222;SDS011;6174;49.058;8.524;2022-10-22T16:38:09;4.37;;;2.87;;
12222;SDS011;6174;49.058;8.524;2022-10-22T16:40:36;5.80;;;3.00;;
12222;SDS011;6174;49.058;8.524;2022-10-22T16:43:03;5.30;;;2.67;;
12222;SDS011;6174;49.058;8.524;2022-10-22T16:45:30;4.70;;;2.50;;
12222;SDS011;6174;49.058;8.524;2022-10-22T16:47:57;6.13;;;2.67;;
12222;SDS011;6174;49.058;8.524;2022-10-22T16:50:23;6.40;;;3.00;;
12222;SDS011;6174;49.058;8.524;2022-10-22T16:52:52;5.53;;;3.07;;
12222;SDS011;6174;49.058;8.524;2022-10-22T16:55:18;4.17;;;2.57;;
12222;SDS011;6174;49.058;8.524;2022-10-22T16:57:48;3.40;;;2.43;;
12222;SDS011;6174;49.058;8.524;2022-10-22T17:00:16;4.17;;;2.70;;
12222;SDS011;6174;49.058;8.524;2022-10-22T17:02:43;3.40;;;2.27;;
12222;SDS011;6174;49.058;8.524;2022-10-22T17:05:10;4.57;;;2.90;;
12222;SDS011;6174;49.058;8.524;2022-10-22T17:07:36;3.23;;;2.20;;
12222;SDS011;6174;49.058;8.524;2022-10-22T17:10:05;6.23;;;2.67;;
12222;SDS011;6174;49.058;8.524;2022-10-22T17:12:33;3.20;;;2.00;;
12222;SDS011;6174;49.058;8.524;2022-10-22T17:15:00;6.23;;;2.70;;
12222;SDS011;6174;49.058;8.524;2022-10-22T17:17:28;5.93;;;3.07;;
12222;SDS011;6174;49.058;8.524;2022-10-22T17:19:54;4.03;;;3.03;;
12222;SDS011;6174;49.058;8.524;2022-10-22T17:22:21;3.97;;;1.90;;
12222;SDS011;6174;49.058;8.524;2022-10-22T17:27:31;6.13;;;3.60;;
12222;SDS011;6174;49.058;8.524;2022-10-22T17:29:57;7.00;;;2.97;;
12222;SDS011;6174;49.058;8.524;2022-10-22T17:32:24;4.37;;;3.47;;
12222;SDS011;6174;49.058;8.524;2022-10-22T17:34:51;5.97;;;3.20;;
12222;SDS011;6174;49.058;8.524;2022-10-22T17:37:18;7.50;;;3.43;;
12222;SDS011;6174;49.058;8.524;2022-10-22T17:39:44;6.30;;;2.93;;
12222;SDS011;6174;49.058;8.524;2022-10-22T17:42:11;5.57;;;2.50;;
12222;SDS011;6174;49.058;8.524;2022-10-22T17:44:39;4.13;;;2.70;;
12222;SDS011;6174;49.058;8.524;2022-10-22T17:47:06;5.70;;;2.50;;
12222;SDS011;6174;49.058;8.524;2022-10-22T17:49:33;3.53;;;2.60;;
12222;SDS011;6174;49.058;8.524;2022-10-22T17:51:59;4.57;;;2.33;;
12222;SDS011;6174;49.058;8.524;2022-10-22T17:54:26;5.43;;;2.83;;
12222;SDS011;6174;49.058;8.524;2022-10-22T17:56:53;4.60;;;2.23;;
12222;SDS011;6174;49.058;8.524;2022-10-22T17:59:20;5.53;;;2.60;;
12222;SDS011;6174;49.058;8.524;2022-10-22T18:01:48;5.67;;;2.67;;
12222;SDS011;6174;49.058;8.524;2022-10-22T18:04:15;4.17;;;2.50;;
12222;SDS011;6174;49.058;8.524;2022-10-22T18:06:43;6.70;;;2.83;;
12222;SDS011;6174;49.058;8.524;2022-10-22T18:09:12;6.17;;;3.13;;
12222;SDS011;6174;49.058;8.524;2022-10-22T18:11:40;9.00;;;3.77;;
12222;SDS011;6174;49.058;8.524;2022-10-22T18:14:08;5.40;;;3.27;;
12222;SDS011;6174;49.058;8.524;2022-10-22T18:16:35;6.00;;;3.03;;
12222;SDS011;6174;49.058;8.524;2022-10-22T18:19:03;5.43;;;2.87;;
12222;SDS011;6174;49.058;8.524;2022-10-22T18:21:30;7.10;;;2.77;;
12222;SDS011;6174;49.058;8.524;2022-10-22T18:23:57;3.97;;;2.63;;
12222;SDS011;6174;49.058;8.524;2022-10-22T18:26:24;3.87;;;2.40;;
12222;SDS011;6174;49.058;8.524;2022-10-22T18:28:50;4.23;;;2.43;;
12222;SDS011;6174;49.058;8.524;2022-10-22T18:31:18;5.13;;;2.70;;
12222;SDS011;6174;49.058;8.524;2022-10-22T18:33:46;5.60;;;2.73;;
12222;SDS011;6174;49.058;8.524;2022-10-22T18:36:16;5.80;;;2.77;;
12222;SDS011;6174;49.058;8.524;2022-10-22T18:38:47;6.73;;;3.23;;
12222;SDS011;6174;49.058;8.524;2022-10-22T18:41:15;3.77;;;2.93;;
12222;SDS011;6174;49.058;8.524;2022-10-22T18:43:41;5.10;;;4.37;;
12222;SDS011;6174;49.058;8.524;2022-10-22T18:46:08;5.30;;;3.17;;
12222;SDS011;6174;49.058;8.524;2022-10-22T18:48:35;7.20;;;3.40;;
12222;SDS011;6174;49.058;8.524;2022-10-22T18:51:03;7.37;;;3.20;;
12222;SDS011;6174;49.058;8.524;2022-10-22T18:53:33;6.17;;;3.33;;
12222;SDS011;6174;49.058;8.524;2022-10-22T18:56:00;5.53;;;3.10;;
12222;SDS011;6174;49.058;8.524;2022-10-22T18:58:29;5.63;;;3.00;;
12222;SDS011;6174;49.058;8.524;2022-10-22T19:00:56;6.77;;;3.30;;
12222;SDS011;6174;49.058;8.524;2022-10-22T19:03:23;3.60;;;2.80;;
12222;SDS011;6174;49.058;8.524;2022-10-22T19:05:50;9.43;;;3.13;;
12222;SDS011;6174;49.058;8.524;2022-10-22T19:08:18;4.57;;;3.27;;
12222;SDS011;6174;49.058;8.524;2022-10-22T19:10:46;3.90;;;2.80;;
12222;SDS011;6174;49.058;8.524;2022-10-22T19:13:14;4.13;;;2.40;;
12222;SDS011;6174;49.058;8.524;2022-10-22T19:15:43;3.90;;;2.60;;
12222;SDS011;6174;49.058;8.524;2022-10-22T19:18:10;4.85;;;2.60;;
12222;SDS011;6174;49.058;8.524;2022-10-22T19:20:39;5.97;;;2.40;;
12222;SDS011;6174;49.058;8.524;2022-10-22T19:23:06;4.47;;;2.50;;
12222;SDS011;6174;49.058;8.524;2022-10-22T19:25:33;5.43;;;2.53;;
12222;SDS011;6174;49.058;8.524;2022-10-22T19:28:01;3.27;;;2.23;;
12222;SDS011;6174;49.058;8.524;2022-10-22T19:30:28;4.43;;;2.63;;
12222;SDS011;6174;49.058;8.524;2022-10-22T19:32:55;8.23;;;3.10;;
12222;SDS011;6174;49.058;8.524;2022-10-22T19:35:22;6.20;;;2.90;;
12222;SDS011;6174;49.058;8.524;2022-10-22T19:37:48;5.90;;;3.20;;
12222;SDS011;6174;49.058;8.524;2022-10-22T19:40:16;5.87;;;2.63;;
12222;SDS011;6174;49.058;8.524;2022-10-22T19:42:43;7.50;;;2.73;;
12222;SDS011;6174;49.058;8.524;2022-10-22T19:45:12;3.37;;;2.63;;
12222;SDS011;6174;49.058;8.524;2022-10-22T19:47:39;4.10;;;2.37;;
12222;SDS011;6174;49.058;8.524;2022-10-22T19:50:06;4.73;;;2.30;;
12222;SDS011;6174;49.058;8.524;2022-10-22T19:52:33;7.47;;;2.60;;
12222;SDS011;6174;49.058;8.524;2022-10-22T19:55:00;3.27;;;2.20;;
12222;SDS011;6174;49.058;8.524;2022-10-22T19:57:27;4.50;;;2.47;;
12222;SDS011;6174;49.058;8.524;2022-10-22T19:59:54;3.47;;;2.37;;
12222;SDS011;6174;49.058;8.524;2022-10-22T20:02:22;3.60;;;2.23;;
12222;SDS011;6174;49.058;8.524;2022-10-22T20:04:50;4.70;;;2.30;;
12222;SDS011;6174;49.058;8.524;2022-10-22T20:07:16;5.70;;;2.80;;
12222;SDS011;6174;49.058;8.524;2022-10-22T20:09:43;3.83;;;2.10;;
12222;SDS011;6174;49.058;8.524;2022-10-22T20:12:10;4.07;;;2.37;;
12222;SDS011;6174;49.058;8.524;2022-10-22T20:14:37;3.57;;;2.60;;
12222;SDS011;6174;49.058;8.524;2022-10-22T20:17:05;3.13;;;2.30;;
12222;SDS011;6174;49.058;8.524;2022-10-22T20:19:33;4.63;;;2.20;;
12222;SDS011;6174;49.058;8.524;2022-10-22T20:22:00;5.90;;;2.33;;
12222;SDS011;6174;49.058;8.524;2022-10-22T20:24:26;4.07;;;2.33;;
12222;SDS011;6174;49.058;8.524;2022-10-22T20:26:53;4.07;;;2.40;;
12222;SDS011;6174;49.058;8.524;2022-10-22T20:29:20;5.77;;;2.40;;
12222;SDS011;6174;49.058;8.524;2022-10-22T20:31:47;5.43;;;2.40;;